createdAt,value
2023-01-07T00:01:32.422Z,17.60
2023-01-07T00:04:00.828Z,17.60
2023-01-07T00:06:29.439Z,17.60
2023-01-07T00:08:57.960Z,17.60
2023-01-07T00:11:26.484Z,17.60
2023-01-07T00:13:54.779Z,17.60
2023-01-07T00:16:26.021Z,17.60
2023-01-07T00:18:54.359Z,17.60
2023-01-07T00:21:22.810Z,17.60
2023-01-07T00:23:50.629Z,17.60
2023-01-07T00:26:20.372Z,17.60
2023-01-07T00:28:49.793Z,17.60
2023-01-07T00:31:18.646Z,17.60
2023-01-07T00:33:51.888Z,17.60
2023-01-07T00:36:20.204Z,17.60
2023-01-07T00:38:48.461Z,17.60
2023-01-07T00:41:16.372Z,17.60
2023-01-07T00:43:44.172Z,17.60
2023-01-07T00:46:11.921Z,17.60
2023-01-07T00:48:39.696Z,17.60
2023-01-07T00:51:10.228Z,17.60
2023-01-07T00:53:37.933Z,17.60
2023-01-07T00:56:06.060Z,17.60
2023-01-07T00:58:33.945Z,17.60
2023-01-07T01:01:02.467Z,17.60
2023-01-07T01:03:30.930Z,17.60
2023-01-07T01:06:02.897Z,17.70
2023-01-07T01:08:32.254Z,17.60
2023-01-07T01:11:04.114Z,17.70
2023-01-07T01:13:32.027Z,17.70
2023-01-07T01:16:00.283Z,17.60
2023-01-07T01:18:28.049Z,17.60
2023-01-07T01:20:56.162Z,17.70
2023-01-07T01:23:23.864Z,17.70
2023-01-07T01:25:52.864Z,17.70
2023-01-07T01:28:20.571Z,17.70
2023-01-07T01:30:55.088Z,17.70
2023-01-07T01:33:23.287Z,17.70
2023-01-07T01:35:50.965Z,17.70
2023-01-07T01:38:19.062Z,17.70
2023-01-07T01:40:46.813Z,17.70
2023-01-07T01:43:30.592Z,17.70
2023-01-07T01:45:58.711Z,17.70
2023-01-07T01:48:27.105Z,17.70
2023-01-07T01:50:54.796Z,17.70
2023-01-07T01:53:24.383Z,17.70
2023-01-07T01:55:54.217Z,17.70
2023-01-07T01:58:24.556Z,17.80
2023-01-07T02:00:53.680Z,17.70
2023-01-07T02:03:21.792Z,17.70
2023-01-07T02:05:49.481Z,17.80
2023-01-07T02:08:22.139Z,17.80
2023-01-07T02:10:50.635Z,17.80
2023-01-07T02:13:26.733Z,17.80
2023-01-07T02:16:00.406Z,17.80
2023-01-07T02:18:41.986Z,17.80
2023-01-07T02:21:17.948Z,17.80
2023-01-07T02:24:22.994Z,17.80
2023-01-07T02:27:16.731Z,17.80
2023-01-07T02:30:21.132Z,17.80
2023-01-07T02:33:11.852Z,17.80
2023-01-07T02:36:02.459Z,17.80
2023-01-07T02:38:34.387Z,17.80
2023-01-07T02:41:07.162Z,17.80
2023-01-07T02:43:38.293Z,17.80
2023-01-07T02:46:10.649Z,17.80
2023-01-07T02:48:39.712Z,17.90
2023-01-07T02:51:07.388Z,17.80
2023-01-07T02:53:35.512Z,17.90
2023-01-07T02:56:11.267Z,17.90
2023-01-07T02:58:51.037Z,17.90
2023-01-07T03:01:29.460Z,17.90
2023-01-07T03:04:07.268Z,17.90
2023-01-07T03:06:42.362Z,17.90
2023-01-07T03:09:13.033Z,17.90
2023-01-07T03:11:43.181Z,17.90
2023-01-07T03:14:12.928Z,17.90
2023-01-07T03:16:42.658Z,17.90
2023-01-07T03:19:16.441Z,17.90
2023-01-07T03:21:44.216Z,17.90
2023-01-07T03:24:12.135Z,17.90
2023-01-07T03:26:41.012Z,17.90
2023-01-07T03:29:09.869Z,18.00
2023-01-07T03:31:37.839Z,17.90
2023-01-07T03:34:07.344Z,18.00
2023-01-07T03:36:39.005Z,18.00
2023-01-07T03:39:07.082Z,18.00
2023-01-07T03:42:04.133Z,18.00
2023-01-07T03:44:32.239Z,18.00
2023-01-07T03:47:00.025Z,18.00
2023-01-07T03:49:27.793Z,18.00
2023-01-07T03:51:57.543Z,18.00
2023-01-07T03:54:25.442Z,18.00
2023-01-07T03:56:53.540Z,18.00
2023-01-07T03:59:21.379Z,18.00
2023-01-07T04:01:49.331Z,18.00
2023-01-07T04:04:17.471Z,18.00
2023-01-07T04:06:45.434Z,18.00
2023-01-07T04:09:15.662Z,18.00
2023-01-07T04:11:43.478Z,18.00
2023-01-07T04:14:11.329Z,18.00
2023-01-07T04:16:39.042Z,18.00
2023-01-07T04:19:07.322Z,18.10
2023-01-07T04:21:35.190Z,18.10
2023-01-07T04:24:03.094Z,18.10
2023-01-07T04:26:33.887Z,18.10
2023-01-07T04:29:01.670Z,18.10
2023-01-07T04:31:29.373Z,18.10
2023-01-07T04:33:57.076Z,18.10
2023-01-07T04:36:24.756Z,18.10
2023-01-07T04:38:52.600Z,18.10
2023-01-07T04:41:20.285Z,18.10
2023-01-07T04:43:49.299Z,18.10
2023-01-07T04:46:17.486Z,18.10
2023-01-07T04:48:45.192Z,18.10
2023-01-07T04:51:12.911Z,18.10
2023-01-07T04:53:40.596Z,18.20
2023-01-07T04:56:09.339Z,18.20
2023-01-07T04:58:37.086Z,18.20
2023-01-07T05:01:07.364Z,18.20
2023-01-07T05:03:35.382Z,18.20
2023-01-07T05:06:03.768Z,18.20
2023-01-07T05:08:31.742Z,18.20
2023-01-07T05:10:59.908Z,18.20
2023-01-07T05:13:27.624Z,18.20
2023-01-07T05:15:55.316Z,18.20
2023-01-07T05:18:24.357Z,18.20
2023-01-07T05:20:52.041Z,18.20
2023-01-07T05:23:20.444Z,18.20
2023-01-07T05:25:48.136Z,18.20
2023-01-07T05:28:16.362Z,18.20
2023-01-07T05:30:44.076Z,18.20
2023-01-07T05:33:12.336Z,18.20
2023-01-07T05:35:41.349Z,18.20
2023-01-07T05:38:09.404Z,18.20
2023-01-07T05:40:37.092Z,18.20
2023-01-07T05:43:04.779Z,18.20
2023-01-07T05:45:32.977Z,18.20
2023-01-07T05:48:00.671Z,18.20
2023-01-07T05:50:28.885Z,18.20
2023-01-07T05:52:57.912Z,18.20
2023-01-07T05:55:26.023Z,18.20
2023-01-07T05:57:53.711Z,18.20
2023-01-07T06:00:21.931Z,18.20
2023-01-07T06:02:49.617Z,18.30
2023-01-07T06:05:17.661Z,18.20
2023-01-07T06:07:45.940Z,18.20
2023-01-07T06:10:15.255Z,18.20
2023-01-07T06:12:43.721Z,18.30
2023-01-07T06:15:12.356Z,18.30
2023-01-07T06:17:40.248Z,18.30
2023-01-07T06:20:09.242Z,18.30
2023-01-07T06:22:37.387Z,18.30
2023-01-07T06:25:05.461Z,18.20
2023-01-07T06:27:35.232Z,18.20
2023-01-07T06:30:04.276Z,18.30
2023-01-07T06:32:32.552Z,18.30
2023-01-07T06:35:00.477Z,18.20
2023-01-07T06:37:28.872Z,18.30
2023-01-07T06:39:58.265Z,18.30
2023-01-07T06:42:26.681Z,18.30
2023-01-07T06:44:55.784Z,18.30
2023-01-07T06:47:23.556Z,18.30
2023-01-07T06:49:51.628Z,18.30
2023-01-07T06:52:19.385Z,18.30
2023-01-07T06:54:48.568Z,18.30
2023-01-07T06:57:16.484Z,18.30
2023-01-07T06:59:44.615Z,18.30
2023-01-07T07:02:18.034Z,18.30
2023-01-07T07:04:45.785Z,18.30
2023-01-07T07:07:13.517Z,18.30
2023-01-07T07:09:41.577Z,18.30
2023-01-07T07:12:09.331Z,18.30
2023-01-07T07:14:37.096Z,18.30
2023-01-07T07:17:04.798Z,18.30
2023-01-07T07:19:33.833Z,18.30
2023-01-07T07:22:03.929Z,18.30
2023-01-07T07:24:32.332Z,18.30
2023-01-07T07:27:01.392Z,18.30
2023-01-07T07:29:29.061Z,18.30
2023-01-07T07:31:57.415Z,18.30
2023-01-07T07:34:25.259Z,18.30
2023-01-07T07:36:54.272Z,18.30
2023-01-07T07:39:21.951Z,18.30
2023-01-07T07:41:50.402Z,18.30
2023-01-07T07:44:18.238Z,18.40
2023-01-07T07:46:46.576Z,18.30
2023-01-07T07:49:14.670Z,18.30
2023-01-07T07:51:42.564Z,18.30
2023-01-07T07:54:11.817Z,18.30
2023-01-07T07:56:39.648Z,18.30
2023-01-07T07:59:07.374Z,18.30
2023-01-07T08:01:37.225Z,18.30
2023-01-07T08:04:05.526Z,18.40
2023-01-07T08:06:34.315Z,18.40
2023-01-07T08:09:02.586Z,18.30
2023-01-07T08:11:31.953Z,18.40
2023-01-07T08:14:00.138Z,18.40
2023-01-07T08:16:28.227Z,18.40
2023-01-07T08:18:56.644Z,18.40
2023-01-07T08:21:24.563Z,18.40
2023-01-07T08:23:52.910Z,18.40
2023-01-07T08:26:20.813Z,18.40
2023-01-07T08:28:50.129Z,18.40
2023-01-07T08:31:18.196Z,18.40
2023-01-07T08:33:46.123Z,18.50
2023-01-07T08:36:22.469Z,18.50
2023-01-07T08:38:52.128Z,18.50
2023-01-07T08:41:20.732Z,18.50
2023-01-07T08:43:50.377Z,18.50
2023-01-07T08:46:18.579Z,18.50
2023-01-07T08:48:46.270Z,18.50
2023-01-07T08:51:13.962Z,18.50
2023-01-07T08:53:41.679Z,18.50
2023-01-07T08:56:09.647Z,18.60
2023-01-07T08:58:38.814Z,18.60
2023-01-07T09:01:08.312Z,18.70
2023-01-07T09:03:36.155Z,18.70
2023-01-07T09:06:03.867Z,18.70
2023-01-07T09:08:31.691Z,18.80
2023-01-07T09:10:59.849Z,18.80
2023-01-07T09:13:27.560Z,18.80
2023-01-07T09:15:55.263Z,18.90
2023-01-07T09:18:24.274Z,18.90
2023-01-07T09:20:52.377Z,18.90
2023-01-07T09:23:20.051Z,19.00
2023-01-07T09:25:47.907Z,18.90
2023-01-07T09:28:16.133Z,19.00
2023-01-07T09:30:44.050Z,19.00
2023-01-07T09:33:12.494Z,19.00
2023-01-07T09:35:41.705Z,19.00
2023-01-07T09:38:09.795Z,19.00
2023-01-07T09:40:38.542Z,19.00
2023-01-07T09:43:09.292Z,19.00
2023-01-07T09:45:38.519Z,19.00
2023-01-07T09:48:07.864Z,19.00
2023-01-07T09:50:46.854Z,19.10
2023-01-07T09:53:16.151Z,19.10
2023-01-07T09:56:10.845Z,19.10
2023-01-07T09:58:31.963Z,19.20
2023-01-07T10:01:04.165Z,19.10
2023-01-07T10:03:42.086Z,19.10
2023-01-07T10:06:13.172Z,19.20
2023-01-07T10:08:46.625Z,19.20
2023-01-07T10:11:19.604Z,19.20
2023-01-07T10:14:01.047Z,19.20
2023-01-07T10:16:31.909Z,19.30
2023-01-07T10:19:01.709Z,19.30
2023-01-07T10:21:37.837Z,19.30
2023-01-07T10:24:09.552Z,19.30
2023-01-07T10:26:39.516Z,19.40
2023-01-07T10:29:09.131Z,19.40
2023-01-07T10:31:37.149Z,19.40
2023-01-07T10:34:07.737Z,19.40
2023-01-07T10:36:39.386Z,19.40
2023-01-07T10:39:15.071Z,19.40
2023-01-07T10:41:47.565Z,19.40
2023-01-07T10:44:45.427Z,19.50
2023-01-07T10:47:18.071Z,19.60
2023-01-07T10:49:54.767Z,19.60
2023-01-07T10:52:33.036Z,19.60
2023-01-07T10:55:28.987Z,19.60
2023-01-07T10:57:57.176Z,19.60
2023-01-07T11:00:25.218Z,19.60
2023-01-07T11:02:56.154Z,19.60
2023-01-07T11:05:25.011Z,19.60
2023-01-07T11:07:55.280Z,19.60
2023-01-07T11:10:24.231Z,19.60
2023-01-07T11:12:54.177Z,19.60
2023-01-07T11:15:23.272Z,19.60
2023-01-07T11:17:53.400Z,19.60
2023-01-07T11:20:42.519Z,19.50
2023-01-07T11:23:32.130Z,19.60
2023-01-07T11:26:24.423Z,19.50
2023-01-07T11:28:54.162Z,19.50
2023-01-07T11:31:22.090Z,19.50
2023-01-07T11:34:03.107Z,19.50
2023-01-07T11:36:41.674Z,19.40
2023-01-07T11:39:19.930Z,19.40
2023-01-07T11:41:55.485Z,19.40
2023-01-07T11:44:23.881Z,19.40
2023-01-07T11:46:51.642Z,19.30
2023-01-07T11:49:25.547Z,19.30
2023-01-07T11:51:53.489Z,19.40
2023-01-07T11:54:23.707Z,19.30
2023-01-07T11:56:54.174Z,19.40
2023-01-07T11:59:29.274Z,19.40
2023-01-07T12:01:59.435Z,19.50
2023-01-07T12:04:28.891Z,19.50
2023-01-07T12:06:57.754Z,19.50
2023-01-07T12:09:29.225Z,19.50
2023-01-07T12:11:58.598Z,19.50
2023-01-07T12:14:28.411Z,19.50
2023-01-07T12:16:56.436Z,19.50
2023-01-07T12:19:32.012Z,19.40
2023-01-07T12:22:06.919Z,19.40
2023-01-07T12:24:47.003Z,19.40
2023-01-07T12:27:24.213Z,19.40
2023-01-07T12:29:59.048Z,19.40
2023-01-07T12:32:34.040Z,19.40
2023-01-07T12:35:15.048Z,19.50
2023-01-07T12:37:44.747Z,19.40
2023-01-07T12:40:20.135Z,19.40
2023-01-07T12:42:51.983Z,19.40
2023-01-07T12:45:22.813Z,19.40
2023-01-07T12:47:52.447Z,19.40
2023-01-07T12:50:24.417Z,19.40
2023-01-07T12:52:53.680Z,19.40
2023-01-07T12:55:23.834Z,19.40
2023-01-07T12:58:00.082Z,19.40
2023-01-07T13:00:28.595Z,19.50
2023-01-07T13:02:59.793Z,19.40
2023-01-07T13:05:28.991Z,19.50
2023-01-07T13:07:58.612Z,19.40
2023-01-07T13:10:29.558Z,19.40
2023-01-07T13:12:58.989Z,19.40
2023-01-07T13:15:28.036Z,19.40
2023-01-07T13:17:56.474Z,19.40
2023-01-07T13:20:39.828Z,19.40
2023-01-07T13:23:09.267Z,19.40
2023-01-07T13:25:45.486Z,19.40
2023-01-07T13:28:29.759Z,19.40
2023-01-07T13:31:11.229Z,19.40
2023-01-07T13:33:43.074Z,19.40
2023-01-07T13:36:21.574Z,19.40
2023-01-07T13:39:00.314Z,19.50
2023-01-07T13:41:35.756Z,19.50
2023-01-07T13:44:54.419Z,19.60
2023-01-07T13:47:23.920Z,19.80
2023-01-07T13:49:56.288Z,19.80
2023-01-07T13:52:25.403Z,20.00
2023-01-07T13:54:57.494Z,20.10
2023-01-07T13:57:45.855Z,20.10
2023-01-07T14:00:45.508Z,20.20
2023-01-07T14:03:45.691Z,20.20
2023-01-07T14:06:44.858Z,20.20
2023-01-07T14:09:35.868Z,20.20
2023-01-07T14:12:34.850Z,20.20
2023-01-07T14:15:36.147Z,20.20
2023-01-07T14:18:57.900Z,20.10
2023-01-07T14:21:37.232Z,20.20
2023-01-07T14:24:30.719Z,20.10
2023-01-07T14:27:00.353Z,20.10
2023-01-07T14:29:46.652Z,20.10
2023-01-07T14:32:39.161Z,20.10
2023-01-07T14:35:08.391Z,20.00
2023-01-07T14:37:38.301Z,20.00
2023-01-07T14:40:42.534Z,19.90
2023-01-07T14:44:02.044Z,20.00
2023-01-07T14:46:49.169Z,19.90
2023-01-07T14:49:45.044Z,19.80
2023-01-07T14:52:19.401Z,19.80
2023-01-07T14:55:19.471Z,19.80
2023-01-07T14:57:53.015Z,19.70
2023-01-07T15:00:31.499Z,19.60
2023-01-07T15:03:10.725Z,19.60
2023-01-07T15:06:01.959Z,19.60
2023-01-07T15:09:00.278Z,19.60
2023-01-07T15:11:47.103Z,19.50
2023-01-07T15:14:38.827Z,19.40
2023-01-07T15:17:07.175Z,19.40
2023-01-07T15:19:38.062Z,19.30
2023-01-07T15:22:10.308Z,19.30
2023-01-07T15:24:40.333Z,19.30
2023-01-07T15:27:11.983Z,19.20
2023-01-07T15:29:43.873Z,19.20
2023-01-07T15:32:18.260Z,19.20
2023-01-07T15:34:45.966Z,19.20
2023-01-07T15:37:14.187Z,19.10
2023-01-07T15:39:45.604Z,19.10
2023-01-07T15:42:16.148Z,19.00
2023-01-07T15:44:43.903Z,19.00
2023-01-07T15:47:37.868Z,19.00
2023-01-07T15:50:23.544Z,19.00
2023-01-07T15:52:51.600Z,19.00
2023-01-07T15:55:27.519Z,18.90
2023-01-07T15:58:01.179Z,18.90
2023-01-07T16:00:29.584Z,18.90
2023-01-07T16:02:57.407Z,18.80
2023-01-07T16:05:26.733Z,18.80
2023-01-07T16:07:55.312Z,18.80
2023-01-07T16:10:24.575Z,18.80
2023-01-07T16:12:52.835Z,18.80
2023-01-07T16:15:27.397Z,18.70
2023-01-07T16:17:56.072Z,18.70
2023-01-07T16:20:27.622Z,18.70
2023-01-07T16:23:13.973Z,18.70
2023-01-07T16:25:44.076Z,18.70
2023-01-07T16:28:12.963Z,18.60
2023-01-07T16:30:41.964Z,18.60
2023-01-07T16:33:11.083Z,18.70
2023-01-07T16:35:38.761Z,18.60
2023-01-07T16:38:06.496Z,18.60
2023-01-07T16:40:36.061Z,18.60
2023-01-07T16:43:04.476Z,18.60
2023-01-07T16:45:33.231Z,18.60
2023-01-07T16:48:19.259Z,18.60
2023-01-07T16:50:47.432Z,18.60
2023-01-07T16:53:23.127Z,18.60
2023-01-07T16:55:51.600Z,18.50
2023-01-07T16:58:26.778Z,18.50
2023-01-07T17:00:55.299Z,18.50
2023-01-07T17:03:24.736Z,18.50
2023-01-07T17:05:59.147Z,18.50
2023-01-07T17:08:26.854Z,18.40
2023-01-07T17:10:59.018Z,18.40
2023-01-07T17:13:35.391Z,18.40
2023-01-07T17:16:31.866Z,18.40
2023-01-07T17:19:26.464Z,18.40
2023-01-07T17:21:54.314Z,18.40
2023-01-07T17:24:23.946Z,18.30
2023-01-07T17:26:51.800Z,18.30
2023-01-07T17:29:20.230Z,18.30
2023-01-07T17:31:48.280Z,18.30
2023-01-07T17:34:17.911Z,18.30
2023-01-07T17:36:47.230Z,18.30
2023-01-07T17:39:15.083Z,18.30
2023-01-07T17:42:00.667Z,18.30
2023-01-07T17:44:28.767Z,18.30
2023-01-07T17:46:56.453Z,18.20
2023-01-07T17:49:24.534Z,18.20
2023-01-07T17:51:54.924Z,18.20
2023-01-07T17:54:23.608Z,18.20
2023-01-07T17:56:52.073Z,18.20
2023-01-07T17:59:20.528Z,18.20
2023-01-07T18:01:48.485Z,18.10
2023-01-07T18:04:17.583Z,18.10
2023-01-07T18:06:45.985Z,18.10
2023-01-07T18:09:15.025Z,18.10
2023-01-07T18:12:01.623Z,18.10
2023-01-07T18:14:29.304Z,18.10
2023-01-07T18:16:57.446Z,18.10
2023-01-07T18:19:25.156Z,18.10
2023-01-07T18:21:52.875Z,18.10
2023-01-07T18:24:22.646Z,18.10
2023-01-07T18:26:50.354Z,18.10
2023-01-07T18:29:18.479Z,18.00
2023-01-07T18:31:46.434Z,18.00
2023-01-07T18:34:15.915Z,18.00
2023-01-07T18:36:43.840Z,18.10
2023-01-07T18:39:12.622Z,18.00
2023-01-07T18:41:42.041Z,18.00
2023-01-07T18:44:10.515Z,18.00
2023-01-07T18:46:38.400Z,18.00
2023-01-07T18:49:06.268Z,18.00
2023-01-07T18:51:34.218Z,18.00
2023-01-07T18:54:02.081Z,18.00
2023-01-07T18:56:30.153Z,18.00
2023-01-07T18:58:59.446Z,18.00
2023-01-07T19:01:27.821Z,18.00
2023-01-07T19:03:56.921Z,18.00
2023-01-07T19:06:24.974Z,18.00
2023-01-07T19:08:52.642Z,18.00
2023-01-07T19:11:20.567Z,18.00
2023-01-07T19:13:48.913Z,17.90
2023-01-07T19:16:18.115Z,17.90
2023-01-07T19:18:46.230Z,17.90
2023-01-07T19:21:14.421Z,17.90
2023-01-07T19:23:42.540Z,18.00
2023-01-07T19:26:10.726Z,17.90
2023-01-07T19:28:38.900Z,17.90
2023-01-07T19:31:07.563Z,18.00
2023-01-07T19:33:36.985Z,18.00
2023-01-07T19:36:05.757Z,18.00
2023-01-07T19:38:33.737Z,18.00
2023-01-07T19:41:02.096Z,18.00
2023-01-07T19:43:29.947Z,17.90
2023-01-07T19:45:57.712Z,18.00
2023-01-07T19:48:26.031Z,18.00
2023-01-07T19:50:56.321Z,18.00
2023-01-07T19:53:24.702Z,17.90
2023-01-07T19:55:54.087Z,17.90
2023-01-07T19:58:22.625Z,17.90
2023-01-07T20:00:50.655Z,18.00
2023-01-07T20:03:19.000Z,17.90
2023-01-07T20:05:46.931Z,18.00
2023-01-07T20:08:16.204Z,17.90
2023-01-07T20:10:43.970Z,18.00
2023-01-07T20:13:11.656Z,17.90
2023-01-07T20:15:39.304Z,17.90
2023-01-07T20:18:07.191Z,17.90
2023-01-07T20:20:34.867Z,18.00
2023-01-07T20:23:02.546Z,17.90
2023-01-07T20:25:31.968Z,17.90
2023-01-07T20:27:59.818Z,17.90
2023-01-07T20:30:28.240Z,17.90
2023-01-07T20:32:56.353Z,18.00
2023-01-07T20:35:24.996Z,18.00
2023-01-07T20:37:52.858Z,17.90
2023-01-07T20:40:21.103Z,17.90
2023-01-07T20:42:50.437Z,17.90
2023-01-07T20:45:18.311Z,18.00
2023-01-07T20:47:46.746Z,17.90
2023-01-07T20:50:15.310Z,17.90
2023-01-07T20:52:43.712Z,17.90
2023-01-07T20:55:11.757Z,17.90
2023-01-07T20:57:40.456Z,17.90
2023-01-07T21:00:11.561Z,17.90
2023-01-07T21:02:39.990Z,17.90
2023-01-07T21:05:08.924Z,17.80
2023-01-07T21:07:37.120Z,17.80
2023-01-07T21:10:05.456Z,17.90
2023-01-07T21:12:33.163Z,17.80
2023-01-07T21:15:00.866Z,17.80
2023-01-07T21:17:29.887Z,17.80
2023-01-07T21:19:58.166Z,17.80
2023-01-07T21:22:25.862Z,17.80
2023-01-07T21:24:54.268Z,17.80
2023-01-07T21:27:22.031Z,17.80
2023-01-07T21:29:51.449Z,17.80
2023-01-07T21:32:19.148Z,17.80
2023-01-07T21:34:48.815Z,17.80
2023-01-07T21:37:16.518Z,17.90
2023-01-07T21:39:44.600Z,17.90
2023-01-07T21:42:12.563Z,17.90
2023-01-07T21:44:40.434Z,17.90
2023-01-07T21:47:08.817Z,17.90
2023-01-07T21:49:36.622Z,17.90
2023-01-07T21:52:06.338Z,17.90
2023-01-07T21:54:34.387Z,17.90
2023-01-07T21:57:02.088Z,17.90
2023-01-07T21:59:29.767Z,17.90
2023-01-07T22:01:57.722Z,17.90
2023-01-07T22:04:26.897Z,17.90
2023-01-07T22:06:55.177Z,17.90
2023-01-07T22:09:25.289Z,17.90
2023-01-07T22:11:53.266Z,17.90
2023-01-07T22:14:21.177Z,17.90
2023-01-07T22:16:49.422Z,17.90
2023-01-07T22:19:17.379Z,17.90
2023-01-07T22:21:45.180Z,17.90
2023-01-07T22:24:14.756Z,17.90
2023-01-07T22:26:43.979Z,17.90
2023-01-07T22:29:12.219Z,17.90
2023-01-07T22:31:40.053Z,17.90
2023-01-07T22:34:08.169Z,17.90
2023-01-07T22:36:38.804Z,17.90
2023-01-07T22:39:10.144Z,17.90
2023-01-07T22:41:37.827Z,17.90
2023-01-07T22:44:08.957Z,17.90
2023-01-07T22:46:36.645Z,17.90
2023-01-07T22:49:04.633Z,17.90
2023-01-07T22:51:37.915Z,17.90
2023-01-07T22:54:06.459Z,17.90
2023-01-07T22:56:34.910Z,17.90
2023-01-07T22:59:02.633Z,17.90
2023-01-07T23:01:32.478Z,17.90
2023-01-07T23:04:00.295Z,17.90
2023-01-07T23:06:28.430Z,18.00
2023-01-07T23:08:56.176Z,17.90
2023-01-07T23:11:41.855Z,18.00
2023-01-07T23:14:09.541Z,18.00
2023-01-07T23:16:39.072Z,17.90
2023-01-07T23:19:06.848Z,18.00
2023-01-07T23:21:36.768Z,18.00
2023-01-07T23:24:04.969Z,17.90
2023-01-07T23:26:32.744Z,18.00
2023-01-07T23:29:00.610Z,18.00
2023-01-07T23:31:28.492Z,18.00
2023-01-07T23:33:58.297Z,18.00
2023-01-07T23:36:26.264Z,18.00
2023-01-07T23:38:54.521Z,18.00
2023-01-07T23:41:22.395Z,18.00
2023-01-07T23:43:50.935Z,18.00
2023-01-07T23:46:18.810Z,18.00
2023-01-07T23:48:47.036Z,18.00
2023-01-07T23:51:16.910Z,18.00
2023-01-07T23:53:45.081Z,18.00
2023-01-07T23:56:13.198Z,18.00
2023-01-07T23:58:41.300Z,18.00
